Time;durP1;ratioP1;P1;durP2;ratioP2;P2;SDS_P1;SDS_P2;PMS_P1;PMS_P2;Temp;Humidity;BMP_temperature;BMP_pressure;BME280_temperature;BME280_humidity;BME280_pressure;Samples;Min_cycle;Max_cycle;Signal;HPM_P1;HPM_P2
2021/05/13 00:00:24;;;;;;;23.57;13.70;;;11.70;99.90;;;;;;5055264;28;20213;-64
2021/05/13 00:02:50;;;;;;;23.40;12.13;;;11.60;99.90;;;;;;5055117;28;20177;-64
2021/05/13 00:05:16;;;;;;;21.17;11.30;;;11.60;99.90;;;;;;5053941;28;20434;-64
2021/05/13 00:07:42;;;;;;;22.93;13.13;;;11.60;99.90;;;;;;5055239;28;20212;-63
2021/05/13 00:10:10;;;;;;;24.03;12.60;;;11.60;99.90;;;;;;5054035;28;20446;-63
2021/05/13 00:15:14;;;;;;;22.65;11.98;;;11.40;99.90;;;;;;5054596;28;20183;-63
2021/05/13 00:17:39;;;;;;;19.50;10.88;;;11.50;99.90;;;;;;5054937;28;20185;-63
2021/05/13 00:20:08;;;;;;;24.93;12.97;;;11.50;99.90;;;;;;5054759;28;20215;-63
2021/05/13 00:22:34;;;;;;;18.98;11.73;;;11.60;99.90;;;;;;5053641;28;20664;-63
2021/05/13 00:25:00;;;;;;;26.23;11.90;;;11.90;99.90;;;;;;5054271;28;20214;-63
2021/05/13 00:27:26;;;;;;;24.43;11.93;;;12.10;99.90;;;;;;5054795;28;20188;-64
2021/05/13 00:29:51;;;;;;;17.80;10.97;;;12.20;99.90;;;;;;5053808;28;20188;-63
2021/05/13 00:32:17;;;;;;;22.93;11.50;;;11.90;99.90;;;;;;5054744;28;20432;-61
2021/05/13 00:34:43;;;;;;;18.27;11.43;;;11.90;99.90;;;;;;5054229;28;20330;-61
2021/05/13 00:37:08;;;;;;;23.57;11.87;;;12.00;99.90;;;;;;5053523;28;20326;-61
2021/05/13 00:39:34;;;;;;;23.23;12.73;;;11.80;99.90;;;;;;5054260;28;20516;-60
2021/05/13 00:41:59;;;;;;;23.20;11.30;;;11.70;99.90;;;;;;5054404;28;20184;-61
2021/05/13 00:44:25;;;;;;;20.00;10.63;;;11.80;99.90;;;;;;5054012;28;20185;-60
2021/05/13 00:46:51;;;;;;;14.80;10.03;;;11.60;99.90;;;;;;5054538;28;20632;-60
2021/05/13 00:49:18;;;;;;;20.40;10.20;;;11.50;99.90;;;;;;5054186;28;20277;-60
2021/05/13 00:51:45;;;;;;;20.15;10.93;;;11.50;99.90;;;;;;5054127;28;20591;-60
2021/05/13 00:54:12;;;;;;;18.75;10.52;;;11.50;99.90;;;;;;5053687;28;20213;-60
2021/05/13 00:56:37;;;;;;;18.05;10.43;;;11.30;99.90;;;;;;5054174;28;20257;-61
2021/05/13 00:59:07;;;;;;;22.43;10.73;;;11.40;99.90;;;;;;5053737;28;20613;-61
2021/05/13 01:04:11;;;;;;;18.33;11.23;;;11.20;99.90;;;;;;5053741;28;20826;-60
2021/05/13 01:06:37;;;;;;;29.20;11.07;;;11.10;99.90;;;;;;5052994;28;20191;-60
2021/05/13 01:09:08;;;;;;;18.90;10.60;;;11.00;99.90;;;;;;5053917;28;20425;-60
2021/05/13 01:11:40;;;;;;;24.63;11.23;;;10.90;99.90;;;;;;5053793;28;20217;-60
2021/05/13 01:14:25;;;;;;;18.27;10.35;;;10.90;99.90;;;;;;5053253;28;20644;-60
2021/05/13 01:16:58;;;;;;;16.40;10.70;;;11.00;99.90;;;;;;5052686;28;20181;-61
2021/05/13 01:19:24;;;;;;;21.02;11.88;;;11.00;99.90;;;;;;5052642;28;20191;-61
2021/05/13 01:21:49;;;;;;;19.20;11.37;;;11.00;99.90;;;;;;5054008;28;20652;-61
2021/05/13 01:24:15;;;;;;;19.07;10.97;;;10.90;99.90;;;;;;5053064;28;20238;-61
2021/05/13 01:26:46;;;;;;;16.13;10.33;;;11.00;99.90;;;;;;5053460;28;20219;-61
2021/05/13 01:29:13;;;;;;;22.70;11.43;;;10.90;99.90;;;;;;5053531;28;20188;-61
2021/05/13 01:31:39;;;;;;;17.80;9.75;;;10.80;99.90;;;;;;5053315;28;20173;-61
2021/05/13 01:34:06;;;;;;;18.90;11.13;;;10.60;99.90;;;;;;5053007;28;20203;-60
2021/05/13 01:36:33;;;;;;;23.58;11.00;;;10.60;99.90;;;;;;5053236;28;20294;-60
2021/05/13 01:38:59;;;;;;;20.02;10.73;;;10.70;99.90;;;;;;5053489;28;20195;-60
2021/05/13 01:41:25;;;;;;;20.20;10.90;;;10.90;99.90;;;;;;5053130;28;20287;-60
2021/05/13 01:43:50;;;;;;;23.53;12.53;;;10.80;99.90;;;;;;5052711;28;20431;-60
2021/05/13 01:46:16;;;;;;;18.57;10.67;;;10.90;99.90;;;;;;5052985;28;20176;-60
2021/05/13 01:48:42;;;;;;;21.70;11.20;;;10.90;99.90;;;;;;5053098;28;20265;-60
2021/05/13 01:51:08;;;;;;;20.52;10.88;;;10.90;99.90;;;;;;5053224;28;20189;-60
2021/05/13 01:53:33;;;;;;;19.43;13.07;;;10.80;99.90;;;;;;5052780;28;20242;-60
2021/05/13 01:55:59;;;;;;;20.80;11.90;;;10.90;99.90;;;;;;5052609;28;20593;-60
2021/05/13 01:58:25;;;;;;;26.87;12.83;;;11.10;99.90;;;;;;5053091;28;20177;-60
2021/05/13 02:00:51;;;;;;;20.77;11.97;;;11.10;99.90;;;;;;5052755;28;20595;-60
2021/05/13 02:03:18;;;;;;;18.50;11.73;;;10.90;99.90;;;;;;5052740;28;20418;-60
2021/05/13 02:05:43;;;;;;;24.75;12.75;;;10.90;99.90;;;;;;5052665;28;20188;-60
2021/05/13 02:08:10;;;;;;;23.13;12.77;;;10.80;99.90;;;;;;5052145;28;20181;-63
2021/05/13 02:10:35;;;;;;;26.98;12.50;;;10.80;99.90;;;;;;5053034;28;20275;-66
2021/05/13 02:13:01;;;;;;;22.30;13.50;;;10.80;99.90;;;;;;5052781;28;20636;-65
2021/05/13 02:15:27;;;;;;;19.93;10.90;;;10.80;99.90;;;;;;5052533;28;20177;-64
2021/05/13 02:17:55;;;;;;;22.40;11.27;;;10.90;99.90;;;;;;5052909;28;20191;-63
2021/05/13 02:20:23;;;;;;;20.08;12.77;;;10.70;99.90;;;;;;5053341;28;20193;-62
2021/05/13 02:22:49;;;;;;;23.92;12.30;;;10.60;99.90;;;;;;5052644;28;20182;-62
2021/05/13 02:25:14;;;;;;;23.15;11.77;;;10.50;99.90;;;;;;5053119;28;20672;-62
2021/05/13 02:27:41;;;;;;;25.07;11.93;;;10.50;99.90;;;;;;5054784;28;20176;-61
2021/05/13 02:30:11;;;;;;;27.25;13.88;;;10.60;99.90;;;;;;5057126;28;20188;-64
2021/05/13 02:32:37;;;;;;;23.63;13.07;;;10.80;99.90;;;;;;5056856;28;20877;-65
2021/05/13 02:35:07;;;;;;;27.92;13.68;;;10.70;99.90;;;;;;5056575;28;20188;-63
2021/05/13 02:37:33;;;;;;;23.95;13.40;;;10.80;99.90;;;;;;5056571;28;20193;-64
2021/05/13 02:39:58;;;;;;;20.20;12.50;;;10.80;99.90;;;;;;5057115;28;20206;-65
2021/05/13 02:42:24;;;;;;;28.27;21.00;;;10.70;99.90;;;;;;5056690;28;20176;-61
2021/05/13 02:44:50;;;;;;;25.50;15.73;;;10.80;99.90;;;;;;5057265;28;20183;-63
2021/05/13 02:47:15;;;;;;;28.50;15.20;;;11.00;99.90;;;;;;5056572;28;20172;-64
2021/05/13 02:49:41;;;;;;;23.93;15.10;;;11.00;99.90;;;;;;5056537;28;20172;-64
2021/05/13 02:52:06;;;;;;;28.03;16.10;;;10.90;99.90;;;;;;5057375;28;20264;-63
2021/05/13 02:54:32;;;;;;;26.90;15.83;;;10.90;99.90;;;;;;5055957;28;20178;-64
2021/05/13 02:56:58;;;;;;;26.70;17.10;;;10.80;99.90;;;;;;5056260;28;20239;-64
2021/05/13 03:00:26;;;;;;;32.03;15.73;;;10.80;99.90;;;;;;5056439;28;20173;-64
2021/05/13 03:02:19;;;;;;;24.27;15.68;;;10.90;99.90;;;;;;5046785;28;20188;-64
2021/05/13 03:04:45;;;;;;;36.77;16.83;;;10.90;99.90;;;;;;5055945;28;20182;-60
2021/05/13 03:07:11;;;;;;;26.73;15.60;;;10.90;99.90;;;;;;5056232;28;20446;-61
2021/05/13 03:09:41;;;;;;;32.90;17.15;;;11.00;99.90;;;;;;5055995;28;20281;-60
2021/05/13 03:12:07;;;;;;;28.38;14.90;;;11.10;99.90;;;;;;5055839;28;20642;-60
2021/05/13 03:14:34;;;;;;;26.95;16.38;;;11.00;99.90;;;;;;5054699;28;20191;-60
2021/05/13 03:17:00;;;;;;;32.58;16.67;;;10.90;99.90;;;;;;5056150;28;20264;-60
2021/05/13 03:19:33;;;;;;;29.98;16.73;;;11.00;99.90;;;;;;5055927;28;20187;-60
2021/05/13 03:22:01;;;;;;;31.42;17.02;;;11.10;99.90;;;;;;5056039;28;20189;-63
2021/05/13 03:29:18;;;;;;;30.53;16.40;;;11.30;99.90;;;;;;5056026;28;20169;-63
2021/05/13 03:31:44;;;;;;;29.73;17.30;;;11.40;99.90;;;;;;5055767;28;20663;-63
2021/05/13 03:34:10;;;;;;;29.40;17.10;;;11.20;99.90;;;;;;5055122;28;20184;-63
2021/05/13 03:36:36;;;;;;;32.47;17.03;;;11.40;99.90;;;;;;5055713;28;20250;-63
2021/05/13 03:39:09;;;;;;;33.33;17.83;;;11.30;99.90;;;;;;5054342;28;20502;-63
2021/05/13 03:41:35;;;;;;;28.63;16.85;;;11.20;99.90;;;;;;5055477;28;20459;-63
2021/05/13 03:44:02;;;;;;;31.37;16.23;;;11.30;99.90;;;;;;5051830;28;20192;-63
2021/05/13 03:46:29;;;;;;;32.15;16.00;;;11.20;99.90;;;;;;5055192;28;20274;-63
2021/05/13 03:48:54;;;;;;;31.75;16.83;;;11.30;99.90;;;;;;5055415;28;20627;-63
2021/05/13 03:51:20;;;;;;;32.10;17.47;;;11.30;99.90;;;;;;5055416;28;20271;-63
2021/05/13 03:53:45;;;;;;;26.20;16.70;;;11.30;99.90;;;;;;5054394;28;20180;-63
2021/05/13 03:56:12;;;;;;;33.40;15.53;;;11.00;99.90;;;;;;5055347;28;20180;-64
2021/05/13 03:58:44;;;;;;;28.40;15.40;;;11.40;99.90;;;;;;5055159;28;20184;-63
2021/05/13 04:01:12;;;;;;;29.42;17.02;;;11.40;99.90;;;;;;5055236;28;20193;-61
2021/05/13 04:03:38;;;;;;;25.80;15.10;;;11.40;99.90;;;;;;5055023;28;20173;-62
2021/05/13 04:06:04;;;;;;;27.23;15.53;;;11.30;99.90;;;;;;5054656;28;20169;-62
2021/05/13 04:08:30;;;;;;;29.85;16.35;;;11.30;99.90;;;;;;5055058;28;20459;-61
2021/05/13 04:10:56;;;;;;;30.63;15.90;;;11.20;99.90;;;;;;5054910;28;20196;-61
2021/05/13 04:13:21;;;;;;;26.30;15.80;;;11.10;99.90;;;;;;5054739;28;20185;-61
2021/05/13 04:15:48;;;;;;;33.57;15.83;;;11.10;99.90;;;;;;5054590;28;20268;-61
2021/05/13 04:18:14;;;;;;;29.73;18.08;;;11.10;99.90;;;;;;5054792;28;20653;-61
2021/05/13 04:20:43;;;;;;;33.53;16.58;;;11.00;99.90;;;;;;5054732;28;20208;-61
2021/05/13 04:23:09;;;;;;;30.73;17.08;;;11.10;99.90;;;;;;5054486;28;20511;-61
2021/05/13 04:25:35;;;;;;;34.42;16.70;;;11.00;99.90;;;;;;5054269;28;20185;-61
2021/05/13 04:28:01;;;;;;;35.67;18.77;;;11.10;99.90;;;;;;5054455;28;20246;-61
2021/05/13 04:30:26;;;;;;;33.27;17.77;;;11.00;99.90;;;;;;5054519;28;20191;-61
2021/05/13 04:32:55;;;;;;;35.23;15.67;;;11.10;99.90;;;;;;5054550;28;20187;-61
2021/05/13 04:35:21;;;;;;;42.80;19.30;;;11.20;99.90;;;;;;5053849;28;20184;-61
2021/05/13 04:37:46;;;;;;;34.10;18.60;;;11.20;99.90;;;;;;5054228;28;20589;-61
2021/05/13 04:40:13;;;;;;;34.77;18.60;;;11.20;99.90;;;;;;5054384;28;20764;-61
2021/05/13 04:42:39;;;;;;;32.67;18.10;;;11.20;99.90;;;;;;5054367;28;20173;-61
2021/05/13 04:45:05;;;;;;;36.17;18.85;;;11.20;99.90;;;;;;5053708;28;20256;-64
2021/05/13 04:50:10;;;;;;;32.42;17.10;;;11.00;99.90;;;;;;5054227;28;20176;-64
2021/05/13 04:52:40;;;;;;;38.22;16.77;;;11.00;99.90;;;;;;5054113;28;20191;-61
2021/05/13 04:55:07;;;;;;;38.35;18.98;;;11.20;99.90;;;;;;5053609;28;20187;-63
2021/05/13 04:57:35;;;;;;;38.35;19.35;;;11.20;99.90;;;;;;5053987;28;20246;-64
2021/05/13 05:00:02;;;;;;;35.47;17.92;;;11.20;99.90;;;;;;5054203;28;20223;-64
2021/05/13 05:02:29;;;;;;;35.80;17.55;;;11.20;99.90;;;;;;5054166;28;20185;-64
2021/05/13 05:04:55;;;;;;;30.80;18.00;;;11.00;99.90;;;;;;5053108;28;20179;-64
2021/05/13 05:07:20;;;;;;;35.13;16.73;;;11.30;99.90;;;;;;5053696;28;20510;-64
2021/05/13 05:09:46;;;;;;;33.93;15.80;;;11.30;99.90;;;;;;5053680;28;20681;-64
2021/05/13 05:12:13;;;;;;;33.77;16.80;;;11.50;99.90;;;;;;5053823;28;20169;-64
2021/05/13 05:14:39;;;;;;;29.98;16.38;;;11.30;99.90;;;;;;5053164;28;20181;-64
2021/05/13 05:17:05;;;;;;;34.05;18.13;;;11.10;99.90;;;;;;5053894;28;20510;-64
2021/05/13 05:19:30;;;;;;;29.60;16.57;;;11.30;99.90;;;;;;5053780;28;20251;-64
2021/05/13 05:21:56;;;;;;;36.07;19.57;;;11.50;99.90;;;;;;5053641;28;20546;-64
2021/05/13 05:24:22;;;;;;;31.30;17.53;;;11.50;99.90;;;;;;5052834;28;20533;-64
2021/05/13 05:26:48;;;;;;;34.07;16.60;;;11.50;99.90;;;;;;5053514;28;20189;-64
2021/05/13 05:29:13;;;;;;;34.00;15.70;;;11.40;99.90;;;;;;5052561;28;20419;-64
2021/05/13 05:31:39;;;;;;;32.60;18.00;;;11.40;99.90;;;;;;5053369;28;20189;-64
2021/05/13 05:34:04;;;;;;;30.90;15.00;;;11.60;99.90;;;;;;5052758;28;20525;-64
2021/05/13 05:36:30;;;;;;;28.50;15.10;;;11.40;99.90;;;;;;5053224;28;20176;-64
2021/05/13 05:38:56;;;;;;;28.53;16.27;;;11.20;99.90;;;;;;5053072;28;20177;-64
2021/05/13 05:41:23;;;;;;;25.07;15.33;;;11.30;99.90;;;;;;5053415;28;20556;-64
2021/05/13 05:43:49;;;;;;;23.13;14.15;;;11.30;99.90;;;;;;5052833;28;20598;-61
2021/05/13 05:46:14;;;;;;;30.20;16.53;;;11.30;99.90;;;;;;5053557;28;20174;-61
2021/05/13 05:48:40;;;;;;;20.20;12.23;;;11.40;99.90;;;;;;5053111;28;20484;-61
2021/05/13 05:51:05;;;;;;;21.80;14.07;;;11.40;99.90;;;;;;5052983;28;20187;-61
2021/05/13 05:53:31;;;;;;;25.53;15.23;;;11.40;99.90;;;;;;5052965;28;20677;-61
2021/05/13 05:55:57;;;;;;;25.58;15.30;;;11.50;99.90;;;;;;5052976;28;20221;-61
2021/05/13 05:58:23;;;;;;;25.70;14.30;;;11.50;99.90;;;;;;5053334;28;20575;-60
2021/05/13 06:00:48;;;;;;;20.03;12.60;;;11.40;99.90;;;;;;5053051;28;20254;-60
2021/05/13 06:03:14;;;;;;;19.53;12.90;;;11.40;99.90;;;;;;5052444;28;20173;-60
2021/05/13 06:05:40;;;;;;;20.93;13.10;;;11.30;99.90;;;;;;5052589;28;20532;-60
2021/05/13 06:08:05;;;;;;;22.40;13.73;;;11.50;99.90;;;;;;5053379;28;20179;-60
2021/05/13 06:10:32;;;;;;;20.77;12.63;;;11.80;99.90;;;;;;5053655;28;20644;-60
2021/05/13 06:12:57;;;;;;;19.58;13.32;;;12.00;99.90;;;;;;5053930;28;20204;-60
2021/05/13 06:15:24;;;;;;;15.30;10.63;;;12.40;99.90;;;;;;5052766;28;20208;-60
2021/05/13 06:17:50;;;;;;;14.70;9.40;;;12.50;99.90;;;;;;5054185;28;20446;-61
2021/05/13 06:20:23;;;;;;;11.67;8.47;;;12.10;99.90;;;;;;5055916;28;20196;-61
2021/05/13 06:22:50;;;;;;;11.50;7.93;;;11.80;99.90;;;;;;5055889;28;20495;-61
2021/05/13 06:25:23;;;;;;;10.90;8.60;;;12.20;99.90;;;;;;5054253;28;20637;-60
2021/05/13 06:27:49;;;;;;;10.48;7.85;;;12.30;99.90;;;;;;5055298;28;20222;-60
2021/05/13 06:30:16;;;;;;;10.45;8.45;;;12.40;99.90;;;;;;5056548;28;20211;-60
2021/05/13 06:32:43;;;;;;;12.95;8.95;;;11.90;99.90;;;;;;5056302;28;20509;-59
2021/05/13 06:35:08;;;;;;;10.55;7.05;;;11.70;99.90;;;;;;5056454;28;20189;-59
2021/05/13 06:37:34;;;;;;;10.97;7.67;;;11.60;99.90;;;;;;5058652;28;20265;-59
2021/05/13 06:40:00;;;;;;;13.37;8.50;;;11.60;99.90;;;;;;5057859;28;20523;-59
2021/05/13 06:42:25;;;;;;;12.83;8.13;;;11.70;99.90;;;;;;5056207;28;20181;-60
2021/05/13 06:44:52;;;;;;;8.07;7.17;;;11.80;99.90;;;;;;5053800;28;20185;-60
2021/05/13 06:47:18;;;;;;;11.02;9.57;;;12.00;99.90;;;;;;5052599;28;20185;-60
2021/05/13 06:49:43;;;;;;;12.00;9.48;;;11.60;99.90;;;;;;5050178;28;20627;-61
2021/05/13 06:52:09;;;;;;;14.70;11.33;;;11.60;99.90;;;;;;5050680;28;20610;-60
2021/05/13 06:54:34;;;;;;;13.73;10.90;;;11.80;99.90;;;;;;5049941;28;20195;-61
2021/05/13 06:57:00;;;;;;;14.70;11.30;;;11.90;99.90;;;;;;5050359;28;20223;-61
2021/05/13 06:59:27;;;;;;;13.33;10.20;;;11.90;99.90;;;;;;5050354;28;20231;-60
2021/05/13 07:01:56;;;;;;;10.90;9.27;;;11.80;99.90;;;;;;5047740;28;20813;-67
2021/05/13 07:04:23;;;;;;;12.93;9.57;;;12.00;99.90;;;;;;5051454;28;20184;-64
2021/05/13 07:06:48;;;;;;;10.07;8.35;;;12.20;99.90;;;;;;5052017;28;20177;-68
2021/05/13 07:09:14;;;;;;;12.00;9.13;;;11.90;99.90;;;;;;5052159;28;20183;-65
2021/05/13 07:11:40;;;;;;;8.93;8.00;;;11.90;99.90;;;;;;5040151;28;20193;-63
2021/05/13 07:14:05;;;;;;;11.03;8.43;;;11.80;99.90;;;;;;5034190;28;20563;-66
2021/05/13 07:16:33;;;;;;;9.17;8.27;;;12.00;99.90;;;;;;5036019;28;20514;-67
2021/05/13 07:18:59;;;;;;;10.43;8.07;;;12.50;99.90;;;;;;5046242;28;20598;-66
2021/05/13 07:21:24;;;;;;;9.15;7.50;;;12.60;99.90;;;;;;5055970;28;20204;-64
2021/05/13 07:23:50;;;;;;;8.93;7.73;;;12.40;99.90;;;;;;5055222;28;20200;-65
2021/05/13 07:26:16;;;;;;;10.20;8.73;;;12.20;99.90;;;;;;5055527;28;20170;-66
2021/05/13 07:28:41;;;;;;;11.33;8.47;;;12.30;99.90;;;;;;5055795;28;20523;-64
2021/05/13 07:31:07;;;;;;;10.97;8.63;;;12.30;99.90;;;;;;5055607;28;20177;-66
2021/05/13 07:33:33;;;;;;;9.00;6.80;;;12.30;99.90;;;;;;5055310;28;20215;-66
2021/05/13 07:36:00;;;;;;;9.88;8.00;;;12.40;99.90;;;;;;5055204;28;20187;-65
2021/05/13 07:38:26;;;;;;;12.27;7.68;;;12.20;99.90;;;;;;5055577;28;20231;-64
2021/05/13 07:40:52;;;;;;;12.10;7.80;;;12.10;99.90;;;;;;5055381;28;20310;-65
2021/05/13 07:43:19;;;;;;;10.95;7.82;;;12.10;99.90;;;;;;5055155;28;20257;-61
2021/05/13 07:45:46;;;;;;;16.17;9.15;;;11.80;99.90;;;;;;5050846;28;20649;-61
2021/05/13 07:48:12;;;;;;;18.80;10.07;;;11.70;99.90;;;;;;5045238;28;20246;-61
2021/05/13 07:50:38;;;;;;;13.90;9.73;;;11.90;99.90;;;;;;5034275;28;20186;-64
2021/05/13 07:53:05;;;;;;;19.83;11.63;;;12.10;99.90;;;;;;5035245;28;20524;-64
2021/05/13 07:55:30;;;;;;;25.98;11.68;;;12.40;99.90;;;;;;5041077;28;20462;-67
2021/05/13 07:57:56;;;;;;;20.10;10.70;;;12.50;99.90;;;;;;5055029;28;20606;-64
2021/05/13 08:00:22;;;;;;;18.87;8.77;;;12.50;99.90;;;;;;5054928;28;20270;-68
2021/05/13 08:02:47;;;;;;;17.47;9.60;;;12.50;99.90;;;;;;5053752;28;20199;-66
2021/05/13 08:05:13;;;;;;;16.40;10.10;;;12.20;99.90;;;;;;5054492;28;20428;-65
2021/05/13 08:07:39;;;;;;;17.60;9.63;;;12.10;99.90;;;;;;5054887;28;20183;-65
2021/05/13 08:10:06;;;;;;;15.60;9.83;;;11.90;99.90;;;;;;5054988;28;20270;-65
2021/05/13 08:12:32;;;;;;;16.58;10.10;;;12.00;99.90;;;;;;5055177;28;20514;-65
2021/05/13 08:14:57;;;;;;;19.90;9.80;;;11.80;99.90;;;;;;5053993;28;20276;-63
2021/05/13 08:17:23;;;;;;;13.90;10.10;;;11.70;99.90;;;;;;5054725;28;20758;-65
2021/05/13 08:19:49;;;;;;;17.77;10.33;;;11.70;99.90;;;;;;5047826;28;20571;-65
2021/05/13 08:22:14;;;;;;;17.97;10.27;;;11.70;99.90;;;;;;5034995;28;20587;-65
2021/05/13 08:24:40;;;;;;;15.60;9.70;;;11.80;99.90;;;;;;5036695;28;20628;-65
2021/05/13 08:27:05;;;;;;;14.77;9.33;;;11.70;99.90;;;;;;5054540;28;20610;-65
2021/05/13 08:29:31;;;;;;;14.03;10.10;;;11.70;99.90;;;;;;5053832;28;20229;-65
2021/05/13 08:31:58;;;;;;;17.37;11.10;;;11.90;99.90;;;;;;5054271;28;20207;-66
2021/05/13 08:34:24;;;;;;;16.45;9.55;;;12.00;99.90;;;;;;5053623;28;20261;-64
2021/05/13 08:36:49;;;;;;;13.53;8.73;;;12.10;99.90;;;;;;5054191;28;20223;-63
2021/05/13 08:39:15;;;;;;;15.40;9.50;;;12.30;99.90;;;;;;5052721;28;20325;-63
2021/05/13 08:41:41;;;;;;;16.10;10.00;;;12.30;99.90;;;;;;5054121;28;20216;-63
2021/05/13 08:44:09;;;;;;;13.85;9.13;;;12.00;99.90;;;;;;5051595;28;20624;-66
2021/05/13 08:46:38;;;;;;;16.70;9.95;;;12.10;99.90;;;;;;5053949;28;20184;-66
2021/05/13 08:49:04;;;;;;;15.30;8.85;;;12.60;99.90;;;;;;5054626;28;20556;-64
2021/05/13 08:51:36;;;;;;;16.60;9.45;;;12.30;99.90;;;;;;5053957;28;20187;-65
2021/05/13 08:54:02;;;;;;;18.45;10.25;;;11.90;99.90;;;;;;5046198;28;20511;-65
2021/05/13 08:56:29;;;;;;;17.07;11.10;;;12.30;99.90;;;;;;5037778;28;20188;-61
2021/05/13 08:59:05;;;;;;;16.38;10.00;;;12.40;99.90;;;;;;5051544;28;20419;-61
2021/05/13 09:01:33;;;;;;;18.33;9.90;;;12.30;99.90;;;;;;5050749;28;20259;-61
2021/05/13 09:04:02;;;;;;;15.65;10.55;;;12.60;99.90;;;;;;5052183;28;20275;-61
2021/05/13 09:06:35;;;;;;;16.58;10.00;;;12.60;99.90;;;;;;5053638;28;20239;-61
2021/05/13 09:09:13;;;;;;;14.05;9.77;;;12.70;99.90;;;;;;5054011;28;20191;-63
2021/05/13 09:12:00;;;;;;;17.83;10.18;;;12.80;99.90;;;;;;5053481;28;20228;-61
2021/05/13 09:14:28;;;;;;;14.10;9.35;;;12.80;99.90;;;;;;5053617;28;20181;-62
2021/05/13 09:16:58;;;;;;;18.17;10.88;;;12.90;99.90;;;;;;5050278;28;20223;-62
2021/05/13 09:19:33;;;;;;;13.88;9.63;;;13.30;99.90;;;;;;5037763;28;20187;-62
2021/05/13 09:22:04;;;;;;;13.68;8.77;;;13.50;99.90;;;;;;5045238;28;20277;-60
2021/05/13 09:24:49;;;;;;;13.35;8.32;;;13.60;99.90;;;;;;5050342;28;20209;-60
2021/05/13 09:27:16;;;;;;;16.40;10.15;;;13.40;99.90;;;;;;5053892;28;20187;-62
2021/05/13 09:29:42;;;;;;;11.85;8.63;;;13.30;99.90;;;;;;5053369;28;20195;-59
2021/05/13 09:32:16;;;;;;;13.07;8.90;;;13.20;99.90;;;;;;5053459;28;20188;-63
2021/05/13 09:34:42;;;;;;;15.07;9.20;;;13.10;99.90;;;;;;5053051;28;20191;-63
2021/05/13 09:37:07;;;;;;;13.13;9.10;;;13.20;99.90;;;;;;5052818;28;20169;-64
2021/05/13 09:39:33;;;;;;;11.60;8.27;;;13.30;99.90;;;;;;5053598;28;20200;-64
2021/05/13 09:42:05;;;;;;;12.10;7.33;;;13.10;99.90;;;;;;5048858;28;20255;-63
2021/05/13 09:44:37;;;;;;;14.07;10.10;;;12.90;99.90;;;;;;5052319;28;20272;-65
2021/05/13 09:47:32;;;;;;;15.45;10.10;;;12.80;99.90;;;;;;5033870;28;20574;-65
2021/05/13 09:50:05;;;;;;;21.33;11.55;;;13.30;99.90;;;;;;5032719;28;20193;-65
2021/05/13 09:52:46;;;;;;;18.13;11.82;;;13.60;99.90;;;;;;5053603;28;20180;-64
2021/05/13 09:55:28;;;;;;;19.42;13.02;;;13.30;99.90;;;;;;5051982;28;20559;-64
2021/05/13 09:58:13;;;;;;;17.75;12.20;;;13.10;99.90;;;;;;5053245;28;20215;-63
2021/05/13 10:00:50;;;;;;;20.10;12.40;;;13.00;99.90;;;;;;5052733;28;20227;-65
2021/05/13 10:03:20;;;;;;;22.40;12.88;;;13.40;99.90;;;;;;5050369;28;20173;-64
2021/05/13 10:05:50;;;;;;;20.58;13.32;;;13.40;99.90;;;;;;5052304;28;20257;-64
2021/05/13 10:08:16;;;;;;;26.33;14.75;;;13.50;99.90;;;;;;5052985;28;20173;-65
2021/05/13 10:10:42;;;;;;;18.83;14.30;;;13.50;99.90;;;;;;5052907;28;20215;-65
2021/05/13 10:13:09;;;;;;;23.20;14.00;;;13.50;99.90;;;;;;5053025;28;20271;-65
2021/05/13 10:15:42;;;;;;;21.25;14.15;;;13.40;99.90;;;;;;5051910;28;20466;-69
2021/05/13 10:18:28;;;;;;;20.55;14.02;;;13.50;99.90;;;;;;5051706;28;20701;-68
2021/05/13 10:20:58;;;;;;;18.63;11.77;;;13.50;99.90;;;;;;5052708;28;20204;-68
2021/05/13 10:23:25;;;;;;;18.30;12.95;;;13.40;99.90;;;;;;5052506;28;20579;-65
2021/05/13 10:25:51;;;;;;;20.20;13.93;;;13.60;99.90;;;;;;5052506;28;20518;-64
2021/05/13 10:28:17;;;;;;;20.70;11.70;;;13.20;99.90;;;;;;5052450;28;20235;-64
2021/05/13 10:30:56;;;;;;;16.58;11.93;;;13.30;99.90;;;;;;5052671;28;20495;-64
2021/05/13 10:33:22;;;;;;;18.90;11.65;;;13.20;99.90;;;;;;5052461;28;20226;-64
2021/05/13 10:36:06;;;;;;;18.67;12.83;;;13.00;99.90;;;;;;5052174;28;20184;-68
2021/05/13 10:38:40;;;;;;;16.17;11.95;;;13.20;99.90;;;;;;5052853;28;20688;-67
2021/05/13 10:41:31;;;;;;;16.10;12.00;;;13.70;99.90;;;;;;5052872;28;20201;-66
2021/05/13 10:43:58;;;;;;;13.93;9.63;;;13.70;99.90;;;;;;5052045;28;20204;-67
2021/05/13 10:46:30;;;;;;;14.15;10.48;;;13.60;99.90;;;;;;5052476;28;20518;-65
2021/05/13 10:49:21;;;;;;;13.20;10.40;;;13.30;99.90;;;;;;5051833;28;20172;-64
2021/05/13 10:51:51;;;;;;;12.63;10.27;;;13.50;99.90;;;;;;5031766;28;20198;-65
2021/05/13 10:54:49;;;;;;;17.48;12.60;;;13.80;99.90;;;;;;5036249;28;20177;-70
2021/05/13 10:57:21;;;;;;;18.15;12.13;;;13.80;99.90;;;;;;5014255;28;20527;-65
2021/05/13 11:00:08;;;;;;;19.00;13.10;;;13.90;99.90;;;;;;5036163;28;20197;-65
2021/05/13 11:02:43;;;;;;;20.10;13.00;;;13.80;99.90;;;;;;5035541;28;20184;-67
2021/05/13 11:05:30;;;;;;;18.52;13.18;;;13.60;99.90;;;;;;5034630;28;20194;-67
2021/05/13 11:08:24;;;;;;;20.77;14.00;;;13.60;99.90;;;;;;5036237;28;20261;-70
2021/05/13 11:10:50;;;;;;;20.70;13.90;;;13.50;99.90;;;;;;5036405;28;20208;-69
2021/05/13 11:13:16;;;;;;;18.50;13.40;;;13.70;99.90;;;;;;5035826;28;20178;-69
2021/05/13 11:15:46;;;;;;;18.30;12.90;;;13.80;99.90;;;;;;5035618;28;20497;-68
2021/05/13 11:18:14;;;;;;;17.45;12.75;;;13.90;99.90;;;;;;5036098;28;20185;-65
2021/05/13 11:20:44;;;;;;;21.13;14.93;;;14.20;99.90;;;;;;5036544;28;20288;-67
2021/05/13 11:23:19;;;;;;;17.25;12.27;;;14.60;99.90;;;;;;5036472;28;20201;-70
2021/05/13 11:25:49;;;;;;;20.40;13.30;;;14.30;99.90;;;;;;5036061;28;20178;-69
2021/05/13 11:28:18;;;;;;;16.80;11.95;;;13.60;99.90;;;;;;5035613;28;20181;-68
2021/05/13 11:30:44;;;;;;;17.65;13.50;;;13.70;99.90;;;;;;5035265;28;20184;-67
2021/05/13 11:33:10;;;;;;;21.42;13.88;;;13.80;99.90;;;;;;5035942;28;20606;-69
2021/05/13 11:35:39;;;;;;;17.60;12.30;;;13.80;99.90;;;;;;5035591;28;20177;-69
2021/05/13 11:38:23;;;;;;;17.02;12.38;;;13.70;99.90;;;;;;5036157;28;20459;-66
2021/05/13 11:40:51;;;;;;;14.00;11.05;;;14.20;99.90;;;;;;5036114;28;20204;-69
2021/05/13 11:43:27;;;;;;;14.18;10.20;;;14.00;99.90;;;;;;5036009;28;20184;-69
2021/05/13 11:45:56;;;;;;;18.15;11.38;;;13.90;99.90;;;;;;5035502;28;20185;-69
2021/05/13 11:48:26;;;;;;;15.02;11.35;;;14.00;99.90;;;;;;5036575;28;20256;-69
2021/05/13 11:50:53;;;;;;;15.90;10.57;;;13.90;99.90;;;;;;5054042;28;20197;-66
2021/05/13 11:53:19;;;;;;;14.75;11.70;;;14.00;99.90;;;;;;5055138;28;20204;-67
2021/05/13 11:55:46;;;;;;;15.98;11.10;;;14.10;99.90;;;;;;5055415;28;20173;-67
2021/05/13 11:58:14;;;;;;;12.32;9.70;;;14.00;99.90;;;;;;5055969;28;20624;-66
2021/05/13 12:00:41;;;;;;;14.63;10.40;;;14.10;99.90;;;;;;5054752;28;20648;-65
2021/05/13 12:03:17;;;;;;;15.23;10.13;;;13.90;99.90;;;;;;5054818;28;20201;-63
2021/05/13 12:05:53;;;;;;;14.65;10.68;;;13.70;99.90;;;;;;5056682;28;20180;-67
2021/05/13 12:08:20;;;;;;;14.65;10.32;;;13.90;99.90;;;;;;5055990;28;20286;-69
2021/05/13 12:10:47;;;;;;;14.18;10.23;;;13.90;99.90;;;;;;5055472;28;20201;-64
2021/05/13 12:13:16;;;;;;;13.13;10.32;;;14.00;99.90;;;;;;5055491;28;20740;-62
2021/05/13 12:15:42;;;;;;;11.55;9.88;;;13.80;99.90;;;;;;5055231;28;20594;-63
2021/05/13 12:18:08;;;;;;;11.10;8.73;;;13.80;99.90;;;;;;5055737;28;20232;-66
2021/05/13 12:20:41;;;;;;;12.13;9.88;;;13.30;99.90;;;;;;5054201;28;20463;-64
2021/05/13 12:23:07;;;;;;;16.38;10.75;;;13.20;99.90;;;;;;5055323;28;20606;-65
2021/05/13 12:25:35;;;;;;;13.10;10.00;;;13.50;99.90;;;;;;5055203;28;20176;-66
2021/05/13 12:28:01;;;;;;;12.45;9.40;;;13.90;99.90;;;;;;5055468;28;20177;-64
2021/05/13 12:30:27;;;;;;;15.20;9.73;;;14.10;99.90;;;;;;5055200;28;20200;-65
2021/05/13 12:32:52;;;;;;;12.80;10.30;;;14.20;99.90;;;;;;5055453;28;20427;-65
2021/05/13 12:35:26;;;;;;;13.77;10.17;;;14.10;99.90;;;;;;5054696;28;20312;-69
2021/05/13 12:37:53;;;;;;;13.45;10.77;;;13.90;99.90;;;;;;5055231;28;20169;-63
2021/05/13 12:40:19;;;;;;;12.60;9.88;;;14.20;99.90;;;;;;5054284;28;20215;-63
2021/05/13 12:42:45;;;;;;;13.82;11.18;;;14.30;99.90;;;;;;5055160;28;20196;-64
2021/05/13 12:45:15;;;;;;;12.97;10.40;;;14.40;99.90;;;;;;5054612;28;20176;-65